Time,TemperatureF,DewpointF,PressureIn,WindDirection,WindDirectionDegrees,WindSpeedMPH,WindSpeedGustMPH,Humidity,HourlyPrecipIn,Conditions,Clouds,dailyrainin,SoftwareType,DateUTC
2013-07-20 00:03:00,79.3,75.7,29.92,ESE,116,2.0,5.0,89,0.00,,,0.00,meteohub,2013-07-20 05:03:00,
2013-07-20 00:08:00,79.2,75.6,29.92,ESE,105,2.0,4.0,89,0.00,,,0.00,meteohub,2013-07-20 05:08:00,
2013-07-20 00:13:00,79.2,75.6,29.92,ESE,115,1.0,4.0,89,0.00,,,0.00,meteohub,2013-07-20 05:13:00,
2013-07-20 00:18:00,79.0,75.4,29.92,East,94,1.0,4.0,89,0.00,,,0.00,meteohub,2013-07-20 05:18:00,
2013-07-20 00:23:00,79.0,75.7,29.93,East,101,1.0,3.0,90,0.00,,,0.00,meteohub,2013-07-20 05:23:00,
2013-07-20 00:28:00,78.6,75.4,29.92,ESE,102,1.0,3.0,90,0.00,,,0.00,meteohub,2013-07-20 05:28:00,
2013-07-20 00:33:00,78.6,75.4,29.92,ESE,105,1.0,3.0,90,0.00,,,0.00,meteohub,2013-07-20 05:33:00,
2013-07-20 00:38:00,78.8,75.6,29.92,ESE,118,2.0,2.0,90,0.00,,,0.00,meteohub,2013-07-20 05:38:00,
2013-07-20 00:43:00,79.0,75.7,29.92,ESE,116,1.0,2.0,90,0.00,,,0.00,meteohub,2013-07-20 05:43:00,
2013-07-20 00:48:00,79.0,75.7,29.92,ESE,122,1.0,3.0,90,0.00,,,0.00,meteohub,2013-07-20 05:48:00,
2013-07-20 00:53:00,79.0,75.7,29.92,SE,139,1.0,3.0,90,0.00,,,0.00,meteohub,2013-07-20 05:53:00,
2013-07-20 00:58:00,79.0,75.7,29.92,SE,135,2.0,3.0,90,0.00,,,0.00,meteohub,2013-07-20 05:58:00,
2013-07-20 01:02:00,79.0,75.7,29.92,SE,124,1.0,3.0,90,0.00,,,0.00,meteohub,2013-07-20 06:02:00,
2013-07-20 01:07:00,79.0,75.7,29.92,ESE,120,1.0,3.0,90,0.00,,,0.00,meteohub,2013-07-20 06:07:00,
2013-07-20 01:12:00,79.0,75.7,29.91,SE,134,3.0,3.0,90,0.00,,,0.00,meteohub,2013-07-20 06:12:00,
2013-07-20 01:17:00,79.0,75.7,29.91,ESE,105,2.0,3.0,90,0.00,,,0.00,meteohub,2013-07-20 06:17:00,
2013-07-20 01:22:00,78.6,75.4,29.91,ESE,110,2.0,3.0,90,0.00,,,0.00,meteohub,2013-07-20 06:22:00,
2013-07-20 01:27:00,78.6,75.4,29.91,ESE,117,2.0,3.0,90,0.00,,,0.00,meteohub,2013-07-20 06:27:00,
2013-07-20 01:32:00,78.6,75.7,29.91,SE,131,2.0,3.0,91,0.00,,,0.00,meteohub,2013-07-20 06:32:00,
2013-07-20 01:37:00,78.4,75.6,29.91,ESE,108,2.0,3.0,91,0.00,,,0.00,meteohub,2013-07-20 06:37:00,
2013-07-20 01:42:00,78.4,75.6,29.91,SE,125,2.0,3.0,91,0.00,,,0.00,meteohub,2013-07-20 06:42:00,
2013-07-20 01:48:00,78.4,75.6,29.91,ESE,117,2.0,4.0,91,0.00,,,0.00,meteohub,2013-07-20 06:48:00,
2013-07-20 01:53:00,78.3,75.4,29.91,ESE,108,2.0,4.0,91,0.00,,,0.00,meteohub,2013-07-20 06:53:00,
2013-07-20 01:58:00,78.3,75.4,29.90,ESE,110,2.0,4.0,91,0.00,,,0.00,meteohub,2013-07-20 06:58:00,
2013-07-20 02:03:00,78.4,75.6,29.90,ESE,116,2.0,4.0,91,0.00,,,0.00,meteohub,2013-07-20 07:03:00,
2013-07-20 02:08:00,78.4,75.6,29.90,East,97,2.0,4.0,91,0.00,,,0.00,meteohub,2013-07-20 07:08:00,
2013-07-20 02:13:00,78.4,75.6,29.90,East,101,1.0,4.0,91,0.00,,,0.00,meteohub,2013-07-20 07:13:00,
2013-07-20 02:18:00,78.4,75.6,29.90,ESE,118,1.0,4.0,91,0.00,,,0.00,meteohub,2013-07-20 07:18:00,
2013-07-20 02:23:00,78.4,75.6,29.90,ESE,113,2.0,3.0,91,0.00,,,0.00,meteohub,2013-07-20 07:23:00,
2013-07-20 02:28:00,78.3,75.4,29.90,ESE,109,3.0,3.0,91,0.00,,,0.00,meteohub,2013-07-20 07:28:00,
2013-07-20 02:33:00,78.3,75.7,29.90,ESE,111,1.0,3.0,92,0.00,,,0.00,meteohub,2013-07-20 07:33:00,
2013-07-20 02:38:00,78.3,75.7,29.89,ESE,107,2.0,3.0,92,0.00,,,0.00,meteohub,2013-07-20 07:38:00,
2013-07-20 02:43:00,78.3,75.7,29.89,ESE,113,1.0,3.0,92,0.00,,,0.00,meteohub,2013-07-20 07:43:00,
2013-07-20 02:48:00,78.1,75.6,29.89,SE,126,3.0,3.0,92,0.00,,,0.00,meteohub,2013-07-20 07:48:00,
2013-07-20 02:53:00,78.3,75.7,29.88,SE,134,2.0,3.0,92,0.00,,,0.00,meteohub,2013-07-20 07:53:00,
2013-07-20 02:58:00,78.3,75.7,29.88,SE,125,2.0,3.0,92,0.00,,,0.00,meteohub,2013-07-20 07:58:00,
2013-07-20 03:03:00,78.3,75.7,29.88,SE,129,1.0,3.0,92,0.00,,,0.00,meteohub,2013-07-20 08:03:00,
2013-07-20 03:08:00,78.1,75.6,29.88,ESE,119,2.0,4.0,92,0.00,,,0.00,meteohub,2013-07-20 08:08:00,
2013-07-20 03:13:00,78.1,75.6,29.88,East,89,2.0,4.0,92,0.00,,,0.00,meteohub,2013-07-20 08:13:00,
2013-07-20 03:18:00,78.1,75.6,29.88,ESE,105,1.0,4.0,92,0.00,,,0.00,meteohub,2013-07-20 08:18:00,
2013-07-20 03:23:00,77.9,75.4,29.88,ESE,103,2.0,2.0,92,0.00,,,0.00,meteohub,2013-07-20 08:23:00,
2013-07-20 03:28:00,77.7,75.6,29.87,SE,124,1.0,3.0,93,0.00,,,0.00,meteohub,2013-07-20 08:28:00,
2013-07-20 03:33:00,77.7,75.6,29.88,East,101,1.0,3.0,93,0.00,,,0.00,meteohub,2013-07-20 08:33:00,
2013-07-20 03:38:00,77.7,75.6,29.87,ESE,105,1.0,3.0,93,0.00,,,0.00,meteohub,2013-07-20 08:38:00,
2013-07-20 03:43:00,77.5,75.4,29.87,East,89,0.0,3.0,93,0.00,,,0.00,meteohub,2013-07-20 08:43:00,
2013-07-20 03:48:00,77.4,75.2,29.87,East,89,0.0,3.0,93,0.00,,,0.00,meteohub,2013-07-20 08:48:00,
2013-07-20 03:53:00,77.4,75.2,29.87,East,89,0.0,3.0,93,0.00,,,0.00,meteohub,2013-07-20 08:53:00,
2013-07-20 03:58:00,77.4,75.6,29.87,East,91,0.0,2.0,94,0.00,,,0.00,meteohub,2013-07-20 08:58:00,
2013-07-20 04:03:00,77.4,75.2,29.87,East,91,0.0,2.0,93,0.00,,,0.00,meteohub,2013-07-20 09:03:00,
2013-07-20 04:08:00,77.2,75.4,29.87,East,91,0.0,2.0,94,0.00,,,0.00,meteohub,2013-07-20 09:08:00,
2013-07-20 04:13:00,77.2,75.4,29.87,East,91,0.0,0.0,94,0.00,,,0.00,meteohub,2013-07-20 09:13:00,
2013-07-20 04:18:00,77.2,75.4,29.87,East,91,0.0,0.0,94,0.00,,,0.00,meteohub,2013-07-20 09:18:00,
2013-07-20 04:23:00,77.0,75.2,29.87,East,90,0.0,0.0,94,0.00,,,0.00,meteohub,2013-07-20 09:23:00,
2013-07-20 04:28:00,77.0,75.2,29.87,East,90,0.0,0.0,94,0.00,,,0.00,meteohub,2013-07-20 09:28:00,
2013-07-20 04:33:00,76.8,75.0,29.87,East,90,0.0,0.0,94,0.00,,,0.00,meteohub,2013-07-20 09:33:00,
2013-07-20 04:38:00,76.6,74.8,29.87,East,90,0.0,0.0,94,0.00,,,0.00,meteohub,2013-07-20 09:38:00,
2013-07-20 04:43:00,76.6,75.0,29.87,East,91,0.0,0.0,95,0.00,,,0.00,meteohub,2013-07-20 09:43:00,
2013-07-20 04:48:00,76.6,75.0,29.87,East,90,0.0,0.0,95,0.00,,,0.00,meteohub,2013-07-20 09:48:00,
2013-07-20 04:53:00,76.6,75.0,29.87,East,90,0.0,0.0,95,0.00,,,0.00,meteohub,2013-07-20 09:53:00,
2013-07-20 04:58:00,76.6,75.0,29.87,East,90,0.0,0.0,95,0.00,,,0.00,meteohub,2013-07-20 09:58:00,
2013-07-20 05:03:00,76.6,75.0,29.87,East,91,0.0,1.0,95,0.00,,,0.00,meteohub,2013-07-20 10:03:00,
2013-07-20 05:08:00,76.6,75.0,29.87,East,97,1.0,1.0,95,0.00,,,0.00,meteohub,2013-07-20 10:08:00,
2013-07-20 05:13:00,76.6,75.0,29.86,East,98,1.0,2.0,95,0.00,,,0.00,meteohub,2013-07-20 10:13:00,
2013-07-20 05:18:00,76.6,75.0,29.87,East,97,0.0,2.0,95,0.00,,,0.00,meteohub,2013-07-20 10:18:00,
2013-07-20 05:23:00,76.8,75.2,29.86,East,98,0.0,2.0,95,0.00,,,0.00,meteohub,2013-07-20 10:23:00,
2013-07-20 05:28:00,76.8,75.2,29.86,East,98,0.0,2.0,95,0.00,,,0.00,meteohub,2013-07-20 10:28:00,
2013-07-20 05:33:00,76.8,75.0,29.86,ESE,102,2.0,2.0,94,0.00,,,0.00,meteohub,2013-07-20 10:33:00,
2013-07-20 05:38:00,77.0,75.4,29.87,ESE,109,1.0,2.0,95,0.00,,,0.00,meteohub,2013-07-20 10:38:00,
2013-07-20 05:43:00,76.8,75.0,29.87,East,90,2.0,2.0,94,0.00,,,0.00,meteohub,2013-07-20 10:43:00,
2013-07-20 05:48:00,76.8,75.0,29.86,ENE,74,2.0,3.0,94,0.00,,,0.00,meteohub,2013-07-20 10:48:00,
2013-07-20 05:53:00,76.6,75.0,29.87,East,81,2.0,3.0,95,0.00,,,0.00,meteohub,2013-07-20 10:53:00,
2013-07-20 05:58:00,76.6,75.0,29.87,East,79,2.0,3.0,95,0.00,,,0.00,meteohub,2013-07-20 10:58:00,
2013-07-20 06:03:00,76.6,75.0,29.87,East,91,1.0,3.0,95,0.00,,,0.00,meteohub,2013-07-20 11:03:00,
2013-07-20 06:08:00,76.6,75.0,29.87,East,81,1.0,3.0,95,0.00,,,0.00,meteohub,2013-07-20 11:08:00,
2013-07-20 06:13:00,76.6,75.0,29.87,East,89,0.0,2.0,95,0.00,,,0.00,meteohub,2013-07-20 11:13:00,
2013-07-20 06:18:00,76.6,75.0,29.87,East,89,0.0,2.0,95,0.00,,,0.00,meteohub,2013-07-20 11:18:00,
2013-07-20 06:23:00,76.6,75.0,29.87,ENE,72,2.0,2.0,95,0.00,,,0.00,meteohub,2013-07-20 11:23:00,
2013-07-20 06:28:00,76.6,75.0,29.87,ENE,73,3.0,3.0,95,0.00,,,0.00,meteohub,2013-07-20 11:28:00,
2013-07-20 06:33:00,76.6,75.0,29.88,East,98,2.0,3.0,95,0.00,,,0.00,meteohub,2013-07-20 11:33:00,
2013-07-20 06:38:00,76.6,75.0,29.88,East,88,0.0,3.0,95,0.00,,,0.00,meteohub,2013-07-20 11:38:00,
2013-07-20 06:43:00,76.8,75.2,29.88,East,88,0.0,3.0,95,0.00,,,0.00,meteohub,2013-07-20 11:43:00,
2013-07-20 06:48:00,76.8,75.2,29.88,East,96,2.0,3.0,95,0.00,,,0.00,meteohub,2013-07-20 11:48:00,
2013-07-20 06:53:00,77.0,75.4,29.88,East,96,1.0,2.0,95,0.00,,,0.00,meteohub,2013-07-20 11:53:00,
2013-07-20 06:58:00,77.0,75.4,29.88,ESE,103,0.0,2.0,95,0.00,,,0.00,meteohub,2013-07-20 11:58:00,
2013-07-20 07:03:00,77.2,75.6,29.88,East,100,0.0,2.0,95,0.00,,,0.00,meteohub,2013-07-20 12:03:00,
2013-07-20 07:08:00,77.2,75.6,29.88,East,98,1.0,2.0,95,0.00,,,0.00,meteohub,2013-07-20 12:08:00,
2013-07-20 07:13:00,77.2,75.6,29.88,East,98,1.0,2.0,95,0.00,,,0.00,meteohub,2013-07-20 12:13:00,
2013-07-20 07:18:00,77.2,75.6,29.89,ENE,68,1.0,1.0,95,0.00,,,0.00,meteohub,2013-07-20 12:18:00,
2013-07-20 07:23:00,77.5,75.9,29.89,ENE,69,0.0,2.0,95,0.00,,,0.00,meteohub,2013-07-20 12:23:00,
2013-07-20 07:28:00,78.1,76.3,29.89,ENE,70,1.0,2.0,94,0.00,,,0.00,meteohub,2013-07-20 12:28:00,
2013-07-20 07:33:00,78.6,76.5,29.89,ENE,68,1.0,2.0,93,0.00,,,0.00,meteohub,2013-07-20 12:33:00,
2013-07-20 07:38:00,79.3,76.8,29.89,East,82,1.0,2.0,92,0.00,,,0.00,meteohub,2013-07-20 12:38:00,
2013-07-20 07:43:00,79.9,77.4,29.89,East,93,2.0,3.0,92,0.00,,,0.00,meteohub,2013-07-20 12:43:00,
2013-07-20 07:48:00,80.4,77.5,29.89,East,79,1.0,3.0,91,0.00,,,0.00,meteohub,2013-07-20 12:48:00,
2013-07-20 07:53:00,80.6,77.0,29.89,ENE,77,2.0,3.0,89,0.00,,,0.00,meteohub,2013-07-20 12:53:00,
2013-07-20 07:58:00,81.0,77.7,29.89,ENE,72,3.0,5.0,90,0.00,,,0.00,meteohub,2013-07-20 12:58:00,
2013-07-20 08:03:00,81.0,77.4,29.90,East,82,4.0,5.0,89,0.00,,,0.00,meteohub,2013-07-20 13:03:00,
2013-07-20 08:08:00,81.1,77.5,29.90,ESE,113,2.0,5.0,89,0.00,,,0.00,meteohub,2013-07-20 13:08:00,
2013-07-20 08:13:00,81.3,77.4,29.90,East,91,5.0,5.0,88,0.00,,,0.00,meteohub,2013-07-20 13:13:00,
2013-07-20 08:18:00,81.7,77.7,29.90,ENE,74,2.0,6.0,88,0.00,,,0.00,meteohub,2013-07-20 13:18:00,
2013-07-20 08:23:00,82.2,77.9,29.90,ESE,105,4.0,6.0,87,0.00,,,0.00,meteohub,2013-07-20 13:23:00,
2013-07-20 08:28:00,82.6,77.9,29.90,East,94,3.0,6.0,86,0.00,,,0.00,meteohub,2013-07-20 13:28:00,
2013-07-20 08:32:00,82.9,77.9,29.90,ESE,111,3.0,6.0,85,0.00,,,0.00,meteohub,2013-07-20 13:32:00,
2013-07-20 08:37:00,82.9,77.5,29.90,SE,124,3.0,6.0,84,0.00,,,0.00,meteohub,2013-07-20 13:37:00,
2013-07-20 08:42:00,82.9,77.2,29.90,ESE,119,4.0,8.0,83,0.00,,,0.00,meteohub,2013-07-20 13:42:00,
2013-07-20 08:47:00,83.5,77.7,29.90,ESE,107,4.0,9.0,83,0.00,,,0.00,meteohub,2013-07-20 13:47:00,
2013-07-20 08:52:00,83.5,77.4,29.90,East,79,4.0,9.0,82,0.00,,,0.00,meteohub,2013-07-20 13:52:00,
2013-07-20 08:57:00,83.5,77.0,29.90,SE,132,6.0,9.0,81,0.00,,,0.00,meteohub,2013-07-20 13:57:00,
2013-07-20 09:02:00,83.3,77.2,29.90,SE,135,5.0,11.0,82,0.00,,,0.00,meteohub,2013-07-20 14:02:00,
2013-07-20 09:08:00,83.5,77.0,29.90,ESE,113,9.0,11.0,81,0.00,,,0.00,meteohub,2013-07-20 14:08:00,
2013-07-20 09:13:00,83.5,77.0,29.90,ESE,111,5.0,11.0,81,0.00,,,0.00,meteohub,2013-07-20 14:13:00,
2013-07-20 09:18:00,83.8,76.6,29.90,SE,138,5.0,11.0,79,0.00,,,0.00,meteohub,2013-07-20 14:18:00,
2013-07-20 09:23:00,83.8,77.0,29.90,ESE,105,3.0,11.0,80,0.00,,,0.00,meteohub,2013-07-20 14:23:00,
2013-07-20 09:28:00,84.4,77.5,29.90,East,93,4.0,9.0,80,0.00,,,0.00,meteohub,2013-07-20 14:28:00,
2013-07-20 09:33:00,84.6,77.4,29.89,East,96,6.0,9.0,79,0.00,,,0.00,meteohub,2013-07-20 14:33:00,
2013-07-20 09:38:00,84.6,77.4,29.89,ESE,107,7.0,9.0,79,0.00,,,0.00,meteohub,2013-07-20 14:38:00,
2013-07-20 09:43:00,84.7,77.2,29.89,SE,134,3.0,9.0,78,0.00,,,0.00,meteohub,2013-07-20 14:43:00,
2013-07-20 09:48:00,84.9,77.7,29.89,East,82,4.0,10.0,79,0.00,,,0.00,meteohub,2013-07-20 14:48:00,
2013-07-20 09:53:00,85.3,76.8,29.89,ESE,110,6.0,10.0,76,0.00,,,0.00,meteohub,2013-07-20 14:53:00,
2013-07-20 09:58:00,85.5,77.0,29.89,ENE,65,4.0,10.0,76,0.00,,,0.00,meteohub,2013-07-20 14:58:00,
2013-07-20 10:03:00,85.6,76.8,29.89,SE,134,5.0,9.0,75,0.00,,,0.00,meteohub,2013-07-20 15:03:00,
2013-07-20 10:08:00,85.5,77.0,29.89,ESE,115,5.0,9.0,76,0.00,,,0.00,meteohub,2013-07-20 15:08:00,
2013-07-20 10:13:00,85.5,77.0,29.89,East,94,3.0,10.0,76,0.00,,,0.00,meteohub,2013-07-20 15:13:00,
2013-07-20 10:18:00,85.5,77.0,29.88,SE,124,3.0,11.0,76,0.00,,,0.00,meteohub,2013-07-20 15:18:00,
2013-07-20 10:22:00,86.2,77.0,29.88,ESE,121,8.0,11.0,74,0.00,,,0.00,meteohub,2013-07-20 15:22:00,
2013-07-20 10:27:00,86.2,76.5,29.88,ESE,108,6.0,10.0,73,0.00,,,0.00,meteohub,2013-07-20 15:27:00,
2013-07-20 10:32:00,85.6,76.5,29.88,SE,146,3.0,11.0,74,0.00,,,0.00,meteohub,2013-07-20 15:32:00,
2013-07-20 10:37:00,85.5,77.7,29.88,SSE,158,5.0,11.0,78,0.00,,,0.00,meteohub,2013-07-20 15:37:00,
2013-07-20 10:42:00,84.9,77.4,29.88,SE,146,3.0,11.0,78,0.00,,,0.00,meteohub,2013-07-20 15:42:00,
2013-07-20 10:47:00,85.3,78.1,29.88,SSW,208,1.0,10.0,79,0.00,,,0.00,meteohub,2013-07-20 15:47:00,
2013-07-20 10:53:00,85.8,78.1,29.88,South,183,5.0,10.0,78,0.00,,,0.00,meteohub,2013-07-20 15:53:00,
2013-07-20 10:58:00,85.8,78.1,29.88,SE,129,5.0,8.0,78,0.00,,,0.00,meteohub,2013-07-20 15:58:00,
2013-07-20 11:03:00,85.5,77.0,29.88,ESE,113,4.0,8.0,76,0.00,,,0.00,meteohub,2013-07-20 16:03:00,
2013-07-20 11:08:00,85.5,76.3,29.88,SE,130,4.0,8.0,74,0.00,,,0.00,meteohub,2013-07-20 16:08:00,
2013-07-20 11:13:00,85.8,76.6,29.88,SE,134,8.0,9.0,74,0.00,,,0.00,meteohub,2013-07-20 16:13:00,
2013-07-20 11:18:00,86.7,76.1,29.88,ESE,109,6.0,10.0,71,0.00,,,0.00,meteohub,2013-07-20 16:18:00,
2013-07-20 11:23:00,86.9,75.9,29.88,ESE,120,3.0,10.0,70,0.00,,,0.00,meteohub,2013-07-20 16:23:00,
2013-07-20 11:28:00,87.4,75.9,29.88,SE,146,7.0,11.0,69,0.00,,,0.00,meteohub,2013-07-20 16:28:00,
2013-07-20 11:33:00,87.4,76.5,29.88,SE,134,9.0,11.0,70,0.00,,,0.00,meteohub,2013-07-20 16:33:00,
2013-07-20 11:38:00,87.3,75.9,29.88,ESE,110,5.0,10.0,69,0.00,,,0.00,meteohub,2013-07-20 16:38:00,
2013-07-20 11:43:00,87.3,75.9,29.88,SSE,156,4.0,12.0,69,0.00,,,0.00,meteohub,2013-07-20 16:43:00,
2013-07-20 11:48:00,87.4,75.9,29.88,ESE,113,3.0,12.0,69,0.00,,,0.00,meteohub,2013-07-20 16:48:00,
2013-07-20 11:53:00,87.1,76.5,29.88,ESE,120,7.0,11.0,71,0.00,,,0.00,meteohub,2013-07-20 16:53:00,
2013-07-20 11:58:00,87.1,77.0,29.88,SE,146,5.0,11.0,72,0.00,,,0.00,meteohub,2013-07-20 16:58:00,
2013-07-20 12:03:00,86.9,77.2,29.87,ESE,102,6.0,11.0,73,0.00,,,0.00,meteohub,2013-07-20 17:03:00,
2013-07-20 12:08:00,86.9,77.2,29.87,East,96,7.0,10.0,73,0.00,,,0.00,meteohub,2013-07-20 17:08:00,
2013-07-20 12:13:00,87.3,77.2,29.87,SE,125,10.0,10.0,72,0.00,,,0.00,meteohub,2013-07-20 17:13:00,
2013-07-20 12:18:00,87.4,76.8,29.87,ESE,114,7.0,13.0,71,0.00,,,0.00,meteohub,2013-07-20 17:18:00,
2013-07-20 12:23:00,88.2,78.4,29.87,East,98,5.0,13.0,73,0.00,,,0.00,meteohub,2013-07-20 17:23:00,
2013-07-20 12:28:00,88.2,77.5,29.87,ESE,117,5.0,13.0,71,0.00,,,0.00,meteohub,2013-07-20 17:28:00,
2013-07-20 12:33:00,88.2,76.6,29.87,SE,130,6.0,13.0,69,0.00,,,0.00,meteohub,2013-07-20 17:33:00,
2013-07-20 12:38:00,87.8,75.9,29.87,SE,134,13.0,13.0,68,0.00,,,0.00,meteohub,2013-07-20 17:38:00,
2013-07-20 12:43:00,88.2,76.6,29.87,East,101,10.0,17.0,69,0.00,,,0.00,meteohub,2013-07-20 17:43:00,
2013-07-20 12:48:00,88.3,76.8,29.87,ESE,117,12.0,17.0,69,0.00,,,0.00,meteohub,2013-07-20 17:48:00,
2013-07-20 12:53:00,88.5,77.0,29.87,SSE,149,13.0,17.0,69,0.00,,,0.00,meteohub,2013-07-20 17:53:00,
2013-07-20 12:58:00,88.2,76.6,29.88,East,86,10.0,15.0,69,0.00,,,0.00,meteohub,2013-07-20 17:58:00,
2013-07-20 13:03:00,86.5,77.7,29.88,East,96,5.0,15.0,75,0.00,,,0.00,meteohub,2013-07-20 18:03:00,
2013-07-20 13:08:00,86.4,78.3,29.88,NE,56,12.0,15.0,77,0.00,,,0.00,meteohub,2013-07-20 18:08:00,
2013-07-20 13:13:00,86.0,77.9,29.88,ENE,60,9.0,15.0,77,0.00,,,0.00,meteohub,2013-07-20 18:13:00,
2013-07-20 13:18:00,85.6,77.5,29.87,ENE,61,13.0,15.0,77,0.00,,,0.00,meteohub,2013-07-20 18:18:00,
2013-07-20 13:23:00,84.7,77.5,29.87,ENE,76,11.0,15.0,79,0.00,,,0.00,meteohub,2013-07-20 18:23:00,
2013-07-20 13:28:00,84.2,77.7,29.87,NE,47,8.0,17.0,81,0.00,,,0.00,meteohub,2013-07-20 18:28:00,
2013-07-20 13:33:00,83.8,77.4,29.86,ENE,60,7.0,17.0,81,0.00,,,0.00,meteohub,2013-07-20 18:33:00,
2013-07-20 13:38:00,84.2,77.7,29.86,NE,56,10.0,17.0,81,0.00,,,0.00,meteohub,2013-07-20 18:38:00,
2013-07-20 13:43:00,84.9,78.4,29.86,East,98,6.0,14.0,81,0.00,,,0.00,meteohub,2013-07-20 18:43:00,
2013-07-20 13:48:00,86.2,77.7,29.86,East,86,11.0,13.0,76,0.00,,,0.00,meteohub,2013-07-20 18:48:00,
2013-07-20 13:54:00,86.4,77.9,29.86,East,79,9.0,13.0,76,0.00,,,0.00,meteohub,2013-07-20 18:54:00,
2013-07-20 13:59:00,86.0,77.5,29.86,East,79,11.0,16.0,76,0.00,,,0.00,meteohub,2013-07-20 18:59:00,
2013-07-20 14:04:00,86.2,78.1,29.85,NE,53,8.0,16.0,77,0.00,,,0.00,meteohub,2013-07-20 19:04:00,
2013-07-20 14:09:00,87.4,78.6,29.85,ENE,66,12.0,16.0,75,0.00,,,0.00,meteohub,2013-07-20 19:09:00,
2013-07-20 14:14:00,87.4,78.6,29.85,ENE,65,6.0,16.0,75,0.00,,,0.00,meteohub,2013-07-20 19:14:00,
2013-07-20 14:19:00,87.6,77.9,29.85,ENE,71,15.0,17.0,73,0.00,,,0.00,meteohub,2013-07-20 19:19:00,
2013-07-20 14:25:00,88.2,77.9,29.85,ESE,114,13.0,19.0,72,0.00,,,0.00,meteohub,2013-07-20 19:25:00,
2013-07-20 14:30:00,87.3,77.5,29.84,ESE,110,10.0,19.0,73,0.00,,,0.00,meteohub,2013-07-20 19:30:00,
2013-07-20 14:35:00,83.7,78.6,29.84,ENE,73,11.0,18.0,85,0.04,,,0.04,meteohub,2013-07-20 19:35:00,
2013-07-20 14:41:00,80.1,77.5,29.84,ENE,70,7.0,17.0,92,0.06,,,0.06,meteohub,2013-07-20 19:41:00,
2013-07-20 14:46:00,79.2,77.4,29.84,NE,53,3.0,17.0,94,0.07,,,0.07,meteohub,2013-07-20 19:46:00,
2013-07-20 14:51:00,79.5,78.3,29.84,ESE,108,4.0,14.0,96,0.07,,,0.07,meteohub,2013-07-20 19:51:00,
2013-07-20 14:56:00,79.3,78.1,29.84,ESE,105,8.0,11.0,96,0.07,,,0.07,meteohub,2013-07-20 19:56:00,
2013-07-20 15:01:00,79.3,78.1,29.84,East,96,8.0,11.0,96,0.07,,,0.07,meteohub,2013-07-20 20:01:00,
2013-07-20 15:06:00,79.2,77.9,29.84,ESE,118,8.0,13.0,96,0.07,,,0.07,meteohub,2013-07-20 20:06:00,
2013-07-20 15:12:00,78.6,77.4,29.84,East,92,10.0,13.0,96,0.07,,,0.07,meteohub,2013-07-20 20:12:00,
2013-07-20 15:17:00,78.6,77.4,29.84,East,94,5.0,13.0,96,0.07,,,0.07,meteohub,2013-07-20 20:17:00,
2013-07-20 15:22:00,78.4,76.8,29.83,ESE,111,10.0,12.0,95,0.07,,,0.07,meteohub,2013-07-20 20:22:00,
2013-07-20 15:27:00,78.4,76.8,29.83,East,90,7.0,12.0,95,0.07,,,0.07,meteohub,2013-07-20 20:27:00,
2013-07-20 15:32:00,78.6,77.0,29.83,East,97,10.0,13.0,95,0.07,,,0.07,meteohub,2013-07-20 20:32:00,
2013-07-20 15:37:00,79.2,77.9,29.83,East,93,9.0,15.0,96,0.02,,,0.07,meteohub,2013-07-20 20:37:00,
2013-07-20 15:42:00,82.0,78.4,29.83,ESE,104,7.0,15.0,89,0.00,,,0.07,meteohub,2013-07-20 20:42:00,
2013-07-20 15:47:00,84.6,78.1,29.83,ESE,113,8.0,15.0,81,0.00,,,0.07,meteohub,2013-07-20 20:47:00,
2013-07-20 15:52:00,85.8,77.4,29.83,SE,136,10.0,13.0,76,0.00,,,0.07,meteohub,2013-07-20 20:52:00,
2013-07-20 15:57:00,86.4,76.6,29.83,SE,139,11.0,14.0,73,0.00,,,0.07,meteohub,2013-07-20 20:57:00,
2013-07-20 16:02:00,86.5,76.5,29.83,SE,130,12.0,18.0,72,0.00,,,0.07,meteohub,2013-07-20 21:02:00,
2013-07-20 16:07:00,86.9,76.8,29.83,ESE,119,10.0,18.0,72,0.00,,,0.07,meteohub,2013-07-20 21:07:00,
2013-07-20 16:12:00,86.9,76.8,29.82,ESE,116,14.0,18.0,72,0.00,,,0.07,meteohub,2013-07-20 21:12:00,
2013-07-20 16:17:00,87.1,76.5,29.82,ESE,115,11.0,18.0,71,0.00,,,0.07,meteohub,2013-07-20 21:17:00,
2013-07-20 16:22:00,87.1,76.1,29.82,SE,127,10.0,18.0,70,0.00,,,0.07,meteohub,2013-07-20 21:22:00,
2013-07-20 16:27:00,87.3,76.3,29.82,ESE,123,11.0,18.0,70,0.00,,,0.07,meteohub,2013-07-20 21:27:00,
2013-07-20 16:32:00,87.4,75.9,29.82,SE,141,11.0,18.0,69,0.00,,,0.07,meteohub,2013-07-20 21:32:00,
2013-07-20 16:37:00,87.6,75.7,29.82,SE,126,8.0,18.0,68,0.00,,,0.07,meteohub,2013-07-20 21:37:00,
2013-07-20 16:43:00,87.6,76.6,29.81,SE,131,11.0,18.0,70,0.00,,,0.07,meteohub,2013-07-20 21:43:00,
2013-07-20 16:48:00,87.4,75.9,29.81,SE,128,8.0,22.0,69,0.00,,,0.07,meteohub,2013-07-20 21:48:00,
2013-07-20 16:54:00,87.4,76.5,29.80,SE,130,11.0,22.0,70,0.00,,,0.07,meteohub,2013-07-20 21:54:00,
2013-07-20 16:59:00,87.4,76.8,29.80,East,87,14.0,21.0,71,0.00,,,0.07,meteohub,2013-07-20 21:59:00,
2013-07-20 17:04:00,87.6,77.0,29.80,East,100,6.0,19.0,71,0.00,,,0.07,meteohub,2013-07-20 22:04:00,
2013-07-20 17:09:00,88.0,76.5,29.80,SSE,155,7.0,19.0,69,0.00,,,0.07,meteohub,2013-07-20 22:09:00,
2013-07-20 17:14:00,88.2,76.6,29.81,ESE,122,13.0,17.0,69,0.00,,,0.07,meteohub,2013-07-20 22:14:00,
2013-07-20 17:19:00,88.2,76.3,29.81,ENE,75,10.0,17.0,68,0.00,,,0.07,meteohub,2013-07-20 22:19:00,
2013-07-20 17:24:00,88.0,76.1,29.81,ESE,113,11.0,16.0,68,0.00,,,0.07,meteohub,2013-07-20 22:24:00,
2013-07-20 17:29:00,88.2,76.3,29.80,ESE,117,8.0,15.0,68,0.00,,,0.07,meteohub,2013-07-20 22:29:00,
2013-07-20 17:34:00,88.3,76.5,29.81,SE,137,13.0,18.0,68,0.00,,,0.07,meteohub,2013-07-20 22:34:00,
2013-07-20 17:40:00,88.3,75.9,29.81,SSE,153,7.0,18.0,67,0.00,,,0.07,meteohub,2013-07-20 22:40:00,
2013-07-20 17:45:00,88.3,75.9,29.81,ESE,111,12.0,18.0,67,0.00,,,0.07,meteohub,2013-07-20 22:45:00,
2013-07-20 17:50:00,88.2,76.3,29.81,SE,127,11.0,18.0,68,0.00,,,0.07,meteohub,2013-07-20 22:50:00,
2013-07-20 17:55:00,88.2,76.3,29.81,ESE,122,9.0,17.0,68,0.00,,,0.07,meteohub,2013-07-20 22:55:00,
2013-07-20 18:00:00,88.0,76.1,29.81,SE,124,9.0,17.0,68,0.00,,,0.07,meteohub,2013-07-20 23:00:00,
2013-07-20 18:06:00,88.2,76.3,29.81,SE,146,10.0,16.0,68,0.00,,,0.07,meteohub,2013-07-20 23:06:00,
2013-07-20 18:11:00,88.2,76.3,29.80,SE,134,14.0,17.0,68,0.00,,,0.07,meteohub,2013-07-20 23:11:00,
2013-07-20 18:17:00,88.2,75.7,29.80,SE,130,14.0,17.0,67,0.00,,,0.07,meteohub,2013-07-20 23:17:00,
2013-07-20 18:22:00,88.2,76.3,29.79,SE,124,8.0,17.0,68,0.00,,,0.07,meteohub,2013-07-20 23:22:00,
2013-07-20 18:27:00,87.8,76.3,29.79,East,100,14.0,17.0,69,0.00,,,0.07,meteohub,2013-07-20 23:27:00,
2013-07-20 18:32:00,87.4,75.9,29.80,SE,134,10.0,19.0,69,0.00,,,0.07,meteohub,2013-07-20 23:32:00,
2013-07-20 18:38:00,87.8,76.3,29.80,SE,143,13.0,19.0,69,0.00,,,0.07,meteohub,2013-07-20 23:38:00,
2013-07-20 18:43:00,87.4,75.9,29.80,SE,127,10.0,19.0,69,0.00,,,0.07,meteohub,2013-07-20 23:43:00,
2013-07-20 18:48:00,87.4,75.9,29.80,SE,134,8.0,19.0,69,0.00,,,0.07,meteohub,2013-07-20 23:48:00,
2013-07-20 18:53:00,87.4,75.9,29.80,SE,132,7.0,19.0,69,0.00,,,0.07,meteohub,2013-07-20 23:53:00,
2013-07-20 18:58:00,87.3,76.3,29.80,SSE,165,9.0,14.0,70,0.00,,,0.07,meteohub,2013-07-20 23:58:00,
2013-07-20 19:04:00,87.1,76.1,29.81,SE,135,11.0,14.0,70,0.00,,,0.07,meteohub,2013-07-21 00:04:00,
2013-07-20 19:09:00,86.7,76.1,29.80,SE,134,8.0,15.0,71,0.00,,,0.00,meteohub,2013-07-21 00:09:00,
2013-07-20 19:14:00,86.7,76.6,29.80,SE,141,9.0,15.0,72,0.00,,,0.00,meteohub,2013-07-21 00:14:00,
2013-07-20 19:19:00,86.5,76.5,29.81,SE,137,8.0,15.0,72,0.00,,,0.00,meteohub,2013-07-21 00:19:00,
2013-07-20 19:24:00,86.2,76.5,29.81,ESE,116,9.0,16.0,73,0.00,,,0.00,meteohub,2013-07-21 00:24:00,
2013-07-20 19:30:00,86.0,76.8,29.81,ESE,122,13.0,16.0,74,0.00,,,0.00,meteohub,2013-07-21 00:30:00,
2013-07-20 19:35:00,85.6,77.2,29.81,ESE,110,11.0,16.0,76,0.00,,,0.00,meteohub,2013-07-21 00:35:00,
2013-07-20 19:40:00,85.5,76.6,29.81,SE,127,16.0,16.0,75,0.00,,,0.00,meteohub,2013-07-21 00:40:00,
2013-07-20 19:45:00,85.3,77.2,29.81,ESE,123,8.0,15.0,77,0.00,,,0.00,meteohub,2013-07-21 00:45:00,
2013-07-20 19:50:00,84.9,76.1,29.81,SE,124,12.0,16.0,75,0.00,,,0.00,meteohub,2013-07-21 00:50:00,
2013-07-20 19:55:00,84.7,76.6,29.80,South,169,7.0,16.0,77,0.00,,,0.00,meteohub,2013-07-21 00:55:00,
2013-07-20 20:00:00,84.6,77.0,29.81,SE,127,8.0,15.0,78,0.00,,,0.00,meteohub,2013-07-21 01:00:00,
2013-07-20 20:05:00,84.4,76.8,29.81,ESE,110,12.0,16.0,78,0.00,,,0.00,meteohub,2013-07-21 01:05:00,
2013-07-20 20:11:00,84.2,77.0,29.81,SE,130,8.0,16.0,79,0.00,,,0.00,meteohub,2013-07-21 01:11:00,
2013-07-20 20:16:00,84.0,76.8,29.81,SE,135,7.0,16.0,79,0.00,,,0.00,meteohub,2013-07-21 01:16:00,
2013-07-20 20:21:00,83.8,77.0,29.81,SE,129,7.0,16.0,80,0.00,,,0.00,meteohub,2013-07-21 01:21:00,
2013-07-20 20:26:00,83.7,77.2,29.81,ESE,113,12.0,16.0,81,0.00,,,0.00,meteohub,2013-07-21 01:26:00,
2013-07-20 20:31:00,83.5,77.4,29.81,SSE,152,10.0,17.0,82,0.00,,,0.00,meteohub,2013-07-21 01:31:00,
2013-07-20 20:37:00,83.1,77.0,29.81,SE,143,9.0,17.0,82,0.00,,,0.00,meteohub,2013-07-21 01:37:00,
2013-07-20 20:42:00,83.1,77.0,29.81,ESE,117,12.0,17.0,82,0.00,,,0.00,meteohub,2013-07-21 01:42:00,
2013-07-20 20:47:00,82.9,77.2,29.81,ESE,112,8.0,16.0,83,0.00,,,0.00,meteohub,2013-07-21 01:47:00,
2013-07-20 20:52:00,82.8,77.0,29.81,SE,139,12.0,16.0,83,0.00,,,0.00,meteohub,2013-07-21 01:52:00,
2013-07-20 20:57:00,82.8,77.4,29.81,SE,130,10.0,16.0,84,0.00,,,0.00,meteohub,2013-07-21 01:57:00,
2013-07-20 21:02:00,82.6,77.2,29.81,SE,136,9.0,14.0,84,0.00,,,0.00,meteohub,2013-07-21 02:02:00,
2013-07-20 21:07:00,82.6,77.2,29.81,SE,129,9.0,14.0,84,0.00,,,0.00,meteohub,2013-07-21 02:07:00,
2013-07-20 21:12:00,82.2,76.8,29.81,SE,143,9.0,13.0,84,0.00,,,0.00,meteohub,2013-07-21 02:12:00,
2013-07-20 21:17:00,82.2,77.2,29.81,ESE,117,8.0,15.0,85,0.00,,,0.00,meteohub,2013-07-21 02:17:00,
2013-07-20 21:22:00,82.0,77.0,29.81,SE,133,6.0,15.0,85,0.00,,,0.00,meteohub,2013-07-21 02:22:00,
2013-07-20 21:27:00,82.0,77.0,29.81,SE,127,6.0,12.0,85,0.00,,,0.00,meteohub,2013-07-21 02:27:00,
2013-07-20 21:32:00,82.0,77.4,29.82,SE,134,5.0,12.0,86,0.00,,,0.00,meteohub,2013-07-21 02:32:00,
2013-07-20 21:37:00,81.9,77.2,29.83,SE,134,8.0,12.0,86,0.00,,,0.00,meteohub,2013-07-21 02:37:00,
2013-07-20 21:42:00,81.9,77.2,29.83,SE,127,9.0,12.0,86,0.00,,,0.00,meteohub,2013-07-21 02:42:00,
2013-07-20 21:47:00,81.9,77.2,29.83,SE,146,10.0,12.0,86,0.00,,,0.00,meteohub,2013-07-21 02:47:00,
2013-07-20 21:53:00,81.7,77.0,29.83,SE,138,3.0,12.0,86,0.00,,,0.00,meteohub,2013-07-21 02:53:00,
2013-07-20 21:58:00,81.7,77.4,29.83,SE,141,7.0,12.0,87,0.00,,,0.00,meteohub,2013-07-21 02:58:00,
2013-07-20 22:03:00,81.7,77.4,29.83,SE,127,8.0,12.0,87,0.00,,,0.00,meteohub,2013-07-21 03:03:00,
2013-07-20 22:08:00,81.7,77.4,29.84,SSE,156,5.0,10.0,87,0.00,,,0.00,meteohub,2013-07-21 03:08:00,
2013-07-20 22:13:00,81.5,77.2,29.84,SE,127,5.0,10.0,87,0.00,,,0.00,meteohub,2013-07-21 03:13:00,
2013-07-20 22:18:00,81.5,77.2,29.84,SE,143,7.0,9.0,87,0.00,,,0.00,meteohub,2013-07-21 03:18:00,
2013-07-20 22:24:00,81.3,77.4,29.85,SE,135,4.0,9.0,88,0.00,,,0.00,meteohub,2013-07-21 03:24:00,
2013-07-20 22:29:00,81.3,77.4,29.85,SE,134,4.0,9.0,88,0.00,,,0.00,meteohub,2013-07-21 03:29:00,
2013-07-20 22:34:00,81.1,77.5,29.85,SE,146,4.0,8.0,89,0.00,,,0.00,meteohub,2013-07-21 03:34:00,
2013-07-20 22:39:00,81.1,77.5,29.85,SE,146,4.0,8.0,89,0.00,,,0.00,meteohub,2013-07-21 03:39:00,
2013-07-20 22:45:00,81.1,77.5,29.86,SE,138,4.0,7.0,89,0.00,,,0.00,meteohub,2013-07-21 03:45:00,
2013-07-20 22:50:00,81.0,77.4,29.86,SSE,158,4.0,8.0,89,0.00,,,0.00,meteohub,2013-07-21 03:50:00,
2013-07-20 22:55:00,81.0,77.4,29.87,SE,141,4.0,8.0,89,0.00,,,0.00,meteohub,2013-07-21 03:55:00,
2013-07-20 23:00:00,81.0,77.4,29.87,SE,126,5.0,7.0,89,0.00,,,0.00,meteohub,2013-07-21 04:00:00,
2013-07-20 23:01:00,81.0,77.4,29.87,SE,146,4.0,8.0,89,0.00,,,0.00,meteohub,2013-07-21 04:01:00,
2013-07-20 23:02:00,81.0,77.4,29.87,SSE,153,5.0,8.0,89,0.00,,,0.00,meteohub,2013-07-21 04:02:00,
2013-07-20 23:07:00,81.0,77.7,29.87,SE,129,5.0,8.0,90,0.00,,,0.00,meteohub,2013-07-21 04:07:00,
2013-07-20 23:12:00,81.0,77.4,29.87,SSE,149,5.0,8.0,89,0.00,,,0.00,meteohub,2013-07-21 04:12:00,
2013-07-20 23:17:00,81.0,77.4,29.87,SSE,163,5.0,8.0,89,0.00,,,0.00,meteohub,2013-07-21 04:17:00,
2013-07-20 23:22:00,81.0,77.4,29.87,SE,142,3.0,8.0,89,0.00,,,0.00,meteohub,2013-07-21 04:22:00,
2013-07-20 23:27:00,81.0,77.4,29.87,SE,130,5.0,8.0,89,0.00,,,0.00,meteohub,2013-07-21 04:27:00,
2013-07-20 23:32:00,81.0,77.4,29.87,SE,141,3.0,8.0,89,0.00,,,0.00,meteohub,2013-07-21 04:32:00,
2013-07-20 23:37:00,80.8,77.5,29.87,SE,146,6.0,7.0,90,0.00,,,0.00,meteohub,2013-07-21 04:37:00,
2013-07-20 23:42:00,80.8,77.5,29.87,SE,139,5.0,8.0,90,0.00,,,0.00,meteohub,2013-07-21 04:42:00,
2013-07-20 23:47:00,80.6,77.4,29.87,SE,130,3.0,8.0,90,0.00,,,0.00,meteohub,2013-07-21 04:47:00,
2013-07-20 23:52:00,80.6,77.4,29.87,SE,132,3.0,8.0,90,0.00,,,0.00,meteohub,2013-07-21 04:52:00,
2013-07-20 23:56:00,80.4,77.2,29.87,SE,132,4.0,7.0,90,0.00,,,0.00,meteohub,2013-07-21 04:56:00,